Time;durP1;ratioP1;P1;durP2;ratioP2;P2;SDS_P1;SDS_P2;PMS_P1;PMS_P2;Temp;Humidity;BMP_temperature;BMP_pressure;BME280_temperature;BME280_humidity;BME280_pressure;Samples;Min_cycle;Max_cycle;Signal;HPM_P1;HPM_P2
2023/04/05 00:00:36;;;;;;;1.30;1.20;;;19.00;42.30;;;;;;5010077;28;20238;-62
2023/04/05 00:03:01;;;;;;;1.20;1.10;;;19.00;42.20;;;;;;5006415;28;20235;-59
2023/04/05 00:05:30;;;;;;;1.13;1.03;;;19.00;42.30;;;;;;5012378;28;20218;-62
2023/04/05 00:07:58;;;;;;;1.20;1.10;;;19.00;42.30;;;;;;5010896;28;20285;-63
2023/04/05 00:10:23;;;;;;;1.20;1.10;;;19.00;42.30;;;;;;5012691;28;20442;-57
2023/04/05 00:12:49;;;;;;;1.40;1.27;;;19.00;42.30;;;;;;5012122;28;20857;-64
2023/04/05 00:15:15;;;;;;;1.80;1.23;;;19.00;42.30;;;;;;5015062;28;20310;-66
2023/04/05 00:17:42;;;;;;;1.07;0.97;;;19.00;42.30;;;;;;5012162;28;20424;-58
2023/04/05 00:20:10;;;;;;;1.20;1.10;;;19.00;42.40;;;;;;5010390;28;20230;-59
2023/04/05 00:22:35;;;;;;;1.00;0.90;;;19.00;42.40;;;;;;5015745;28;20444;-60
2023/04/05 00:25:02;;;;;;;1.43;1.27;;;19.00;42.30;;;;;;5010089;28;20689;-63
2023/04/05 00:27:27;;;;;;;1.53;1.23;;;19.00;42.30;;;;;;5013074;28;20521;-58
2023/04/05 00:29:53;;;;;;;1.20;1.10;;;19.00;42.30;;;;;;5014932;28;20441;-58
2023/04/05 00:32:18;;;;;;;0.90;0.90;;;19.00;42.30;;;;;;5014877;28;20356;-58
2023/04/05 00:34:44;;;;;;;1.20;1.10;;;19.00;42.40;;;;;;5015334;28;20216;-60
2023/04/05 00:37:10;;;;;;;1.20;1.10;;;19.00;42.30;;;;;;5015513;28;21164;-62
2023/04/05 00:39:36;;;;;;;1.33;1.10;;;19.00;42.40;;;;;;5017503;28;20266;-62
2023/04/05 00:42:05;;;;;;;1.40;1.10;;;19.00;42.50;;;;;;5008616;28;20434;-59
2023/04/05 00:44:34;;;;;;;1.33;1.23;;;19.00;42.50;;;;;;5014239;28;20437;-58
2023/04/05 00:47:05;;;;;;;1.43;1.27;;;19.00;42.50;;;;;;5012452;28;20807;-58
2023/04/05 00:49:32;;;;;;;1.30;1.20;;;19.00;42.50;;;;;;5015046;28;20445;-58
2023/04/05 00:51:58;;;;;;;1.50;1.10;;;19.00;42.50;;;;;;5012979;28;20448;-58
2023/04/05 00:54:25;;;;;;;1.20;1.10;;;19.00;42.50;;;;;;5012508;28;20429;-60
2023/04/05 00:56:54;;;;;;;1.03;1.03;;;19.00;42.50;;;;;;5014411;28;20442;-62
2023/04/05 00:59:20;;;;;;;1.40;1.10;;;19.00;42.50;;;;;;5016837;28;20840;-62
2023/04/05 01:01:54;;;;;;;1.30;1.20;;;19.00;42.50;;;;;;5010312;28;20652;-60
2023/04/05 01:04:27;;;;;;;1.20;1.10;;;19.00;43.20;;;;;;5019387;28;20767;-60
2023/04/05 01:07:15;;;;;;;1.03;0.93;;;19.00;42.50;;;;;;5019849;28;22062;-61
2023/04/05 01:09:57;;;;;;;1.17;1.07;;;19.00;42.50;;;;;;5016821;28;20482;-66
2023/04/05 01:12:26;;;;;;;1.33;1.20;;;19.00;42.50;;;;;;5016567;28;20450;-58
2023/04/05 01:14:54;;;;;;;1.07;0.97;;;19.00;42.50;;;;;;5018939;28;20434;-60
2023/04/05 01:17:23;;;;;;;1.20;1.10;;;19.00;42.50;;;;;;5016242;28;20455;-63
2023/04/05 01:19:57;;;;;;;1.20;1.10;;;19.00;42.50;;;;;;5017952;28;20445;-60
2023/04/05 01:22:42;;;;;;;1.20;1.10;;;19.00;42.50;;;;;;5021469;28;20434;-60
2023/04/05 01:26:05;;;;;;;1.20;1.10;;;19.00;42.50;;;;;;5012731;28;20430;-62
2023/04/05 01:29:08;;;;;;;1.13;1.03;;;19.00;42.50;;;;;;4954653;28;20483;-60
2023/04/05 01:31:59;;;;;;;1.30;1.20;;;19.00;42.50;;;;;;4951512;28;20507;-59
2023/04/05 01:34:46;;;;;;;1.30;1.20;;;19.00;42.60;;;;;;5013796;28;21008;-59
2023/04/05 01:37:16;;;;;;;1.40;1.30;;;19.00;42.60;;;;;;5022351;28;20498;-58
2023/04/05 01:39:46;;;;;;;2.03;1.10;;;19.00;42.60;;;;;;5028366;28;20446;-58
2023/04/05 01:42:12;;;;;;;1.30;1.20;;;19.00;42.60;;;;;;5012465;28;20485;-58
2023/04/05 01:44:37;;;;;;;1.23;1.13;;;18.90;42.50;;;;;;5017268;28;20522;-60
2023/04/05 01:47:03;;;;;;;1.20;1.10;;;19.00;42.60;;;;;;5015143;28;20935;-58
2023/04/05 01:49:28;;;;;;;1.10;1.00;;;19.00;42.60;;;;;;5012830;28;20238;-58
2023/04/05 01:51:54;;;;;;;1.07;1.00;;;18.90;42.50;;;;;;5016021;28;20230;-60
2023/04/05 01:54:19;;;;;;;0.90;0.90;;;19.00;42.60;;;;;;5014968;28;20251;-60
2023/04/05 01:56:45;;;;;;;1.33;1.23;;;19.00;42.60;;;;;;5016256;28;20360;-62
2023/04/05 01:59:10;;;;;;;2.17;1.60;;;19.00;42.60;;;;;;5013605;28;20317;-60
2023/04/05 02:01:36;;;;;;;1.20;1.10;;;19.00;42.60;;;;;;5015775;28;20230;-60
2023/04/05 02:04:02;;;;;;;1.30;1.20;;;19.00;42.60;;;;;;5013227;28;20683;-61
2023/04/05 02:06:27;;;;;;;1.40;1.07;;;19.00;42.60;;;;;;5017439;28;20214;-61
2023/04/05 02:08:53;;;;;;;1.50;1.10;;;18.90;42.50;;;;;;5011259;28;21001;-62
2023/04/05 02:11:18;;;;;;;1.43;1.33;;;18.90;42.50;;;;;;5009610;28;20264;-61
2023/04/05 02:13:44;;;;;;;1.20;1.10;;;19.00;42.70;;;;;;5004087;28;20548;-67
2023/04/05 02:16:09;;;;;;;1.40;1.30;;;19.00;42.70;;;;;;5011151;28;20257;-59
2023/04/05 02:18:37;;;;;;;1.87;0.90;;;18.90;42.60;;;;;;5012760;28;20229;-66
2023/04/05 02:21:09;;;;;;;1.30;1.20;;;19.00;42.60;;;;;;5010050;28;20303;-58
2023/04/05 02:23:36;;;;;;;1.27;1.10;;;18.90;42.50;;;;;;5012992;28;20562;-58
2023/04/05 02:26:01;;;;;;;1.20;1.10;;;18.90;42.60;;;;;;5015729;28;20435;-61
2023/04/05 02:28:27;;;;;;;1.40;1.30;;;18.90;42.50;;;;;;5015435;28;20459;-58
2023/04/05 02:30:52;;;;;;;1.70;1.20;;;18.90;42.50;;;;;;5014999;28;20227;-59
2023/04/05 02:33:18;;;;;;;1.47;1.30;;;18.90;42.50;;;;;;5009077;28;20226;-64
2023/04/05 02:35:46;;;;;;;1.33;1.23;;;19.00;42.70;;;;;;5009804;28;20225;-60
2023/04/05 02:38:12;;;;;;;1.17;1.07;;;18.90;42.50;;;;;;5011553;28;20226;-66
2023/04/05 02:40:40;;;;;;;1.13;1.03;;;18.90;42.60;;;;;;5013198;28;20419;-58
2023/04/05 02:43:06;;;;;;;1.30;1.20;;;18.90;42.50;;;;;;5013306;28;20361;-58
2023/04/05 02:45:32;;;;;;;1.67;1.57;;;19.00;42.60;;;;;;5016155;28;20475;-59
2023/04/05 02:47:57;;;;;;;2.07;1.97;;;18.90;42.50;;;;;;5014428;28;20229;-58
2023/04/05 02:50:23;;;;;;;1.30;1.20;;;18.90;42.60;;;;;;5014859;28;20242;-62
2023/04/05 02:52:49;;;;;;;1.10;1.00;;;18.90;42.60;;;;;;5011270;28;20285;-61
2023/04/05 02:55:14;;;;;;;1.20;1.10;;;18.90;42.60;;;;;;5014846;28;20261;-60
2023/04/05 02:57:42;;;;;;;1.30;1.20;;;18.90;42.60;;;;;;5012983;28;20423;-60
2023/04/05 03:00:10;;;;;;;1.40;1.30;;;18.90;42.60;;;;;;5010108;28;20332;-64
2023/04/05 03:02:36;;;;;;;1.20;1.10;;;18.90;42.50;;;;;;5009799;28;20448;-59
2023/04/05 03:05:02;;;;;;;1.10;1.00;;;18.90;42.60;;;;;;5020103;28;20864;-59
2023/04/05 03:07:28;;;;;;;1.73;1.00;;;18.90;42.60;;;;;;5016506;28;20485;-62
2023/04/05 03:09:53;;;;;;;1.30;1.20;;;18.90;42.50;;;;;;5012389;28;21176;-58
2023/04/05 03:12:19;;;;;;;1.10;1.00;;;18.90;42.50;;;;;;5012542;28;20652;-62
2023/04/05 03:14:45;;;;;;;1.20;1.10;;;18.90;42.60;;;;;;5016004;28;20230;-59
2023/04/05 03:17:11;;;;;;;1.63;1.53;;;18.90;42.60;;;;;;5016831;28;20218;-59
2023/04/05 03:19:37;;;;;;;1.30;1.20;;;18.90;42.60;;;;;;5014451;28;20698;-58
2023/04/05 03:22:03;;;;;;;1.13;1.03;;;18.90;42.60;;;;;;5016683;28;20468;-58
2023/04/05 03:24:29;;;;;;;1.30;1.20;;;18.90;42.60;;;;;;5017334;28;20791;-60
2023/04/05 03:26:55;;;;;;;1.43;1.33;;;18.90;42.60;;;;;;5011829;28;20218;-60
2023/04/05 03:29:20;;;;;;;1.33;1.23;;;18.90;42.60;;;;;;5011400;28;21120;-58
2023/04/05 03:31:46;;;;;;;1.93;1.00;;;18.90;42.60;;;;;;5014419;28;20227;-63
2023/04/05 03:34:11;;;;;;;1.30;1.13;;;18.90;42.60;;;;;;5010120;28;20218;-61
2023/04/05 03:36:43;;;;;;;1.17;1.07;;;18.90;42.60;;;;;;5013488;28;20651;-59
2023/04/05 03:39:09;;;;;;;1.20;1.10;;;18.90;42.70;;;;;;5010544;28;20249;-64
2023/04/05 03:41:36;;;;;;;1.17;1.07;;;18.90;42.70;;;;;;5021495;28;20434;-59
2023/04/05 03:44:02;;;;;;;1.30;1.20;;;18.90;42.70;;;;;;5013318;28;20431;-59
2023/04/05 03:46:27;;;;;;;1.50;1.20;;;18.90;42.60;;;;;;5013571;28;20481;-59
2023/04/05 03:48:53;;;;;;;2.07;1.20;;;18.90;42.60;;;;;;5011352;28;20228;-59
2023/04/05 03:51:18;;;;;;;1.17;1.07;;;18.90;42.70;;;;;;5017407;28;20230;-59
2023/04/05 03:53:44;;;;;;;1.20;1.10;;;18.90;42.60;;;;;;5011159;28;20275;-61
2023/04/05 03:56:10;;;;;;;1.20;1.10;;;18.90;42.60;;;;;;5011412;28;20258;-62
2023/04/05 03:58:36;;;;;;;1.47;1.37;;;18.90;42.70;;;;;;5010163;28;21071;-62
2023/04/05 04:01:02;;;;;;;1.10;1.00;;;18.90;42.60;;;;;;5008244;28;20253;-66
2023/04/05 04:03:29;;;;;;;1.43;1.23;;;18.90;42.70;;;;;;5013317;28;20458;-58
2023/04/05 04:05:55;;;;;;;1.10;1.00;;;18.90;42.60;;;;;;5012257;28;20221;-58
2023/04/05 04:08:21;;;;;;;1.37;1.27;;;18.90;42.60;;;;;;5007592;28;21194;-60
2023/04/05 04:10:48;;;;;;;1.40;1.30;;;18.90;42.60;;;;;;5013621;28;20434;-59
2023/04/05 04:13:13;;;;;;;1.30;1.20;;;18.90;42.60;;;;;;5009721;28;21250;-60
2023/04/05 04:15:39;;;;;;;1.40;1.30;;;19.00;42.50;;;;;;5012887;28;20438;-58
2023/04/05 04:18:04;;;;;;;1.20;1.10;;;19.00;42.50;;;;;;5012091;28;20268;-62
2023/04/05 04:20:30;;;;;;;1.37;1.00;;;19.00;42.30;;;;;;5009757;28;20261;-62
2023/04/05 04:22:56;;;;;;;1.33;1.23;;;19.00;42.20;;;;;;5012497;28;20764;-66
2023/04/05 04:25:22;;;;;;;1.40;1.30;;;19.10;42.30;;;;;;5010897;28;20223;-58
2023/04/05 04:27:49;;;;;;;1.33;1.23;;;19.10;42.30;;;;;;5010587;28;20815;-62
2023/04/05 04:30:15;;;;;;;1.30;1.20;;;19.10;42.30;;;;;;5010677;28;20222;-65
2023/04/05 04:32:51;;;;;;;1.30;1.20;;;19.10;42.20;;;;;;5014490;28;20824;-59
2023/04/05 04:35:25;;;;;;;1.40;1.30;;;19.10;42.10;;;;;;5009416;28;20221;-60
2023/04/05 04:37:58;;;;;;;1.70;1.60;;;19.10;42.20;;;;;;5009043;28;20435;-60
2023/04/05 04:40:37;;;;;;;1.33;1.23;;;19.10;42.20;;;;;;5007040;28;20479;-60
2023/04/05 04:43:16;;;;;;;1.23;1.13;;;19.10;42.10;;;;;;5008694;28;20464;-60
2023/04/05 04:45:49;;;;;;;3.00;1.40;;;19.10;42.10;;;;;;5008123;28;20453;-63
2023/04/05 04:48:17;;;;;;;1.37;1.27;;;19.10;42.10;;;;;;5008503;28;20430;-62
2023/04/05 04:50:44;;;;;;;1.73;1.10;;;19.10;42.10;;;;;;5009231;28;20454;-58
2023/04/05 04:53:10;;;;;;;2.40;1.40;;;19.10;42.10;;;;;;5007230;28;20463;-59
2023/04/05 04:55:37;;;;;;;1.67;1.57;;;19.10;42.10;;;;;;5004388;28;20499;-62
2023/04/05 04:58:09;;;;;;;1.30;1.20;;;19.10;42.10;;;;;;5005962;28;20465;-61
2023/04/05 05:00:39;;;;;;;2.93;1.40;;;19.10;42.00;;;;;;5011254;28;20849;-65
2023/04/05 05:03:07;;;;;;;3.00;1.33;;;19.10;42.00;;;;;;5013437;28;20517;-58
2023/04/05 05:05:32;;;;;;;1.97;1.77;;;19.10;42.00;;;;;;5006963;28;20462;-58
2023/04/05 05:07:58;;;;;;;4.20;1.33;;;19.10;41.90;;;;;;5007681;28;20612;-64
2023/04/05 05:10:23;;;;;;;2.10;1.50;;;19.10;41.80;;;;;;5007303;28;20264;-59
2023/04/05 05:12:50;;;;;;;1.30;1.20;;;19.10;41.80;;;;;;5011329;28;20215;-65
2023/04/05 05:15:16;;;;;;;1.43;1.20;;;19.10;41.70;;;;;;5009572;28;20734;-62
2023/04/05 05:17:41;;;;;;;1.97;1.17;;;19.10;41.70;;;;;;5009134;28;20448;-68
2023/04/05 05:20:09;;;;;;;1.60;1.43;;;19.10;41.70;;;;;;5014311;28;20226;-59
2023/04/05 05:22:38;;;;;;;1.53;1.20;;;19.10;41.70;;;;;;5011050;28;21012;-61
2023/04/05 05:25:05;;;;;;;2.03;1.30;;;19.10;41.50;;;;;;5014934;28;20555;-61
2023/04/05 05:27:32;;;;;;;1.40;1.30;;;19.10;41.50;;;;;;5013155;28;20446;-61
2023/04/05 05:29:58;;;;;;;1.30;1.20;;;19.10;41.40;;;;;;5006703;28;20628;-59
2023/04/05 05:32:23;;;;;;;1.97;1.20;;;19.10;41.40;;;;;;4958757;28;20430;-64
2023/04/05 05:34:49;;;;;;;1.53;1.20;;;19.10;41.40;;;;;;5010224;28;20839;-63
2023/04/05 05:37:16;;;;;;;1.20;1.10;;;19.10;41.30;;;;;;5011920;28;20683;-62
2023/04/05 05:39:43;;;;;;;1.17;1.03;;;19.10;41.30;;;;;;5013550;28;20233;-62
2023/04/05 05:42:09;;;;;;;1.77;1.67;;;19.10;41.30;;;;;;5010499;28;20438;-67
2023/04/05 05:44:35;;;;;;;1.20;1.10;;;19.10;41.30;;;;;;5013847;28;20532;-62
2023/04/05 05:47:01;;;;;;;1.40;1.30;;;19.10;41.20;;;;;;5011689;28;21082;-68
2023/04/05 05:49:27;;;;;;;1.40;1.30;;;19.10;41.20;;;;;;5008189;28;21961;-63
2023/04/05 05:51:52;;;;;;;1.20;1.10;;;19.10;41.20;;;;;;5007238;28;20476;-64
2023/04/05 05:54:18;;;;;;;1.30;1.20;;;19.10;41.20;;;;;;5008645;28;20583;-59
2023/04/05 05:56:43;;;;;;;3.07;1.07;;;19.10;41.20;;;;;;5008102;28;20226;-65
2023/04/05 05:59:10;;;;;;;1.30;1.20;;;19.20;41.30;;;;;;5012306;28;20318;-62
2023/04/05 06:01:37;;;;;;;1.53;1.37;;;19.20;41.30;;;;;;5005578;28;20230;-61
2023/04/05 06:04:03;;;;;;;1.27;1.17;;;19.20;41.30;;;;;;4993793;28;20446;-61
2023/04/05 06:06:29;;;;;;;1.50;1.30;;;19.20;41.20;;;;;;5001897;28;20784;-61
2023/04/05 06:08:55;;;;;;;1.30;1.20;;;19.20;41.20;;;;;;5003576;28;20464;-59
2023/04/05 06:11:21;;;;;;;1.20;1.07;;;19.20;41.30;;;;;;5002177;28;20473;-59
2023/04/05 06:13:47;;;;;;;1.40;1.30;;;19.20;41.20;;;;;;5005772;28;20231;-65
2023/04/05 06:16:13;;;;;;;1.50;1.40;;;19.20;41.30;;;;;;5003495;28;20446;-62
2023/04/05 06:18:38;;;;;;;2.07;1.40;;;19.20;41.20;;;;;;5006495;28;20433;-65
2023/04/05 06:21:04;;;;;;;1.13;1.03;;;19.20;41.20;;;;;;5001583;28;20341;-62
2023/04/05 06:23:30;;;;;;;1.00;1.00;;;19.20;41.30;;;;;;5011298;28;20689;-59
2023/04/05 06:25:55;;;;;;;1.40;1.30;;;19.20;41.30;;;;;;5014422;28;20238;-64
2023/04/05 06:28:21;;;;;;;1.30;1.20;;;19.20;41.30;;;;;;5009778;28;20230;-60
2023/04/05 06:30:47;;;;;;;1.40;1.30;;;19.20;41.20;;;;;;5014611;28;20738;-59
2023/04/05 06:33:12;;;;;;;1.30;1.20;;;19.20;41.20;;;;;;5007879;28;20226;-62
2023/04/05 06:35:38;;;;;;;1.20;1.10;;;19.20;41.30;;;;;;5012445;28;20231;-64
2023/04/05 06:38:04;;;;;;;1.77;1.40;;;19.20;41.20;;;;;;5007225;28;20234;-61
2023/04/05 06:40:29;;;;;;;1.83;1.60;;;19.20;41.20;;;;;;5013464;28;20238;-67
2023/04/05 06:42:55;;;;;;;1.53;1.03;;;19.20;41.20;;;;;;5004782;28;21262;-66
2023/04/05 06:45:21;;;;;;;1.20;1.10;;;19.20;41.20;;;;;;5010460;28;20230;-65
2023/04/05 06:47:46;;;;;;;1.50;1.40;;;19.20;41.20;;;;;;5011117;28;20250;-67
2023/04/05 06:50:12;;;;;;;1.57;1.10;;;19.20;41.20;;;;;;5012342;28;20272;-60
2023/04/05 06:52:38;;;;;;;1.57;1.23;;;19.20;41.20;;;;;;5013555;28;20637;-59
2023/04/05 06:55:03;;;;;;;1.40;1.30;;;19.20;41.30;;;;;;5009409;28;20273;-65
2023/04/05 06:57:29;;;;;;;1.40;1.30;;;19.20;41.20;;;;;;5009136;28;20317;-60
2023/04/05 06:59:55;;;;;;;1.47;1.27;;;19.20;41.20;;;;;;5008399;28;20231;-64
2023/04/05 07:02:20;;;;;;;2.23;1.30;;;19.30;41.30;;;;;;5005937;28;20222;-65
2023/04/05 07:04:47;;;;;;;1.50;1.40;;;19.20;41.30;;;;;;5011423;28;20236;-62
2023/04/05 07:07:12;;;;;;;3.30;1.67;;;19.20;41.30;;;;;;5007315;28;20895;-58
2023/04/05 07:09:38;;;;;;;1.73;1.40;;;19.30;41.30;;;;;;5006649;28;20563;-64
2023/04/05 07:12:05;;;;;;;1.40;1.30;;;19.30;41.30;;;;;;5006327;28;20231;-62
2023/04/05 07:14:35;;;;;;;2.23;1.30;;;19.20;41.20;;;;;;5009492;28;20227;-65
2023/04/05 07:17:02;;;;;;;3.30;1.30;;;19.30;41.30;;;;;;5004154;28;20588;-66
2023/04/05 07:19:27;;;;;;;1.83;1.23;;;19.20;41.10;;;;;;5008448;28;20481;-61
2023/04/05 07:21:54;;;;;;;1.40;1.30;;;19.30;41.30;;;;;;5005523;28;20442;-62
2023/04/05 07:24:20;;;;;;;1.40;1.30;;;19.30;41.30;;;;;;5009938;28;20861;-58
2023/04/05 07:26:45;;;;;;;1.50;1.40;;;19.30;41.30;;;;;;5012120;28;20437;-60
2023/04/05 07:29:11;;;;;;;2.17;1.70;;;19.30;41.20;;;;;;5013799;28;20229;-66
2023/04/05 07:31:38;;;;;;;1.47;1.37;;;19.30;41.30;;;;;;5013124;28;20788;-65
2023/04/05 07:34:04;;;;;;;1.20;1.10;;;19.30;41.20;;;;;;5011039;28;20430;-59
2023/04/05 07:36:29;;;;;;;1.20;1.10;;;19.30;41.30;;;;;;5009889;28;20969;-61
2023/04/05 07:38:56;;;;;;;2.23;1.30;;;19.30;41.30;;;;;;5009444;28;20210;-63
2023/04/05 07:41:25;;;;;;;1.97;1.40;;;19.30;42.00;;;;;;5012280;28;20271;-62
2023/04/05 07:43:51;;;;;;;1.20;1.10;;;19.30;41.20;;;;;;5011448;28;20471;-64
2023/04/05 07:46:17;;;;;;;1.50;1.40;;;19.30;42.00;;;;;;5015802;28;21049;-62
2023/04/05 07:48:42;;;;;;;1.30;1.20;;;19.30;41.20;;;;;;5008839;28;20249;-65
2023/04/05 07:51:09;;;;;;;1.87;1.77;;;19.30;41.20;;;;;;5008363;28;20253;-64
2023/04/05 07:53:36;;;;;;;5.23;1.20;;;19.30;41.30;;;;;;5009316;28;20682;-67
2023/04/05 07:56:06;;;;;;;1.40;1.30;;;19.30;41.30;;;;;;5008618;28;20456;-62
2023/04/05 07:58:33;;;;;;;1.30;1.20;;;19.30;41.30;;;;;;5009425;28;20883;-64
2023/04/05 08:01:02;;;;;;;1.20;1.10;;;19.30;41.30;;;;;;5011143;28;20445;-65
2023/04/05 08:03:29;;;;;;;2.03;1.30;;;19.30;41.20;;;;;;5012732;28;20467;-60
2023/04/05 08:05:54;;;;;;;1.73;1.63;;;19.30;41.30;;;;;;5009524;28;20912;-64
2023/04/05 08:08:20;;;;;;;2.50;1.70;;;19.30;41.30;;;;;;5011001;28;20847;-60
2023/04/05 08:10:46;;;;;;;1.40;1.30;;;19.30;41.30;;;;;;5013144;28;20356;-67
2023/04/05 08:13:11;;;;;;;1.83;1.40;;;19.40;41.40;;;;;;5009396;28;20270;-61
2023/04/05 08:15:37;;;;;;;1.20;1.10;;;19.40;41.40;;;;;;5012393;28;20215;-63
2023/04/05 08:18:03;;;;;;;1.63;1.20;;;19.30;41.30;;;;;;5006760;28;20238;-62
2023/04/05 08:20:28;;;;;;;1.33;1.23;;;19.40;41.40;;;;;;5008334;28;20239;-64
2023/04/05 08:22:54;;;;;;;1.97;1.50;;;19.40;41.40;;;;;;5000930;28;20322;-67
2023/04/05 08:25:20;;;;;;;1.20;1.10;;;19.30;41.30;;;;;;5006253;28;20238;-63
2023/04/05 08:27:45;;;;;;;1.40;1.30;;;19.40;41.40;;;;;;5009445;28;20229;-62
2023/04/05 08:30:12;;;;;;;3.47;1.23;;;19.30;41.30;;;;;;5017866;28;20231;-63
2023/04/05 08:32:37;;;;;;;1.60;1.33;;;19.40;41.40;;;;;;5024479;28;20597;-66
2023/04/05 08:35:03;;;;;;;1.40;1.30;;;19.40;41.50;;;;;;5002388;28;20446;-67
2023/04/05 08:37:33;;;;;;;1.30;1.20;;;19.40;41.30;;;;;;5007726;28;20369;-63
2023/04/05 08:39:59;;;;;;;1.50;1.40;;;19.40;41.30;;;;;;5005859;28;20455;-60
2023/04/05 08:42:40;;;;;;;1.40;1.30;;;19.40;41.30;;;;;;5010114;28;20442;-64
2023/04/05 08:45:09;;;;;;;1.30;1.20;;;19.40;41.40;;;;;;5009540;28;22685;-63
2023/04/05 08:47:36;;;;;;;1.53;1.37;;;19.40;41.30;;;;;;5013191;28;20515;-61
2023/04/05 08:50:02;;;;;;;1.30;1.20;;;19.40;41.30;;;;;;5005944;28;20457;-61
2023/04/05 08:52:30;;;;;;;1.40;1.30;;;19.40;41.40;;;;;;5008672;28;21226;-63
2023/04/05 08:54:55;;;;;;;1.30;1.20;;;19.40;41.30;;;;;;5015563;28;20575;-60
2023/04/05 08:57:26;;;;;;;1.40;1.30;;;19.40;41.30;;;;;;5009464;28;20419;-62
2023/04/05 08:59:53;;;;;;;1.40;1.17;;;19.40;41.30;;;;;;5012898;28;20307;-66
2023/04/05 09:02:23;;;;;;;1.40;1.30;;;19.40;41.30;;;;;;5011212;28;20439;-61
2023/04/05 09:04:50;;;;;;;1.50;1.40;;;19.40;41.30;;;;;;5014928;28;20431;-65
2023/04/05 09:07:18;;;;;;;5.33;1.20;;;19.40;41.30;;;;;;5013041;28;20457;-60
2023/04/05 09:09:47;;;;;;;1.30;1.20;;;19.40;41.30;;;;;;5012891;28;20418;-61
2023/04/05 09:12:13;;;;;;;1.23;1.13;;;19.40;41.30;;;;;;5010580;28;20434;-65
2023/04/05 09:14:39;;;;;;;1.33;1.23;;;19.40;41.30;;;;;;5015613;28;20457;-66
2023/04/05 09:17:05;;;;;;;1.23;1.10;;;19.40;41.30;;;;;;5005099;28;20471;-60
2023/04/05 09:19:31;;;;;;;1.37;1.27;;;19.40;41.30;;;;;;5006354;28;21209;-63
2023/04/05 09:22:07;;;;;;;2.63;1.30;;;19.40;41.30;;;;;;5005457;28;20439;-64
2023/04/05 09:24:38;;;;;;;1.23;1.13;;;19.40;41.30;;;;;;4994291;28;20226;-65
2023/04/05 09:27:24;;;;;;;2.80;1.53;;;19.40;41.30;;;;;;5023698;28;21135;-61
2023/04/05 09:29:50;;;;;;;1.27;1.17;;;19.40;41.30;;;;;;5005272;28;20431;-67
2023/04/05 09:32:20;;;;;;;1.30;1.13;;;19.40;42.10;;;;;;5002207;28;20491;-61
2023/04/05 09:34:46;;;;;;;1.40;1.30;;;19.40;41.20;;;;;;5006393;28;20246;-61
2023/04/05 09:37:16;;;;;;;1.40;1.23;;;19.40;41.20;;;;;;5006654;28;20820;-67
2023/04/05 09:39:43;;;;;;;1.30;1.20;;;19.50;41.20;;;;;;5006468;28;20475;-63
2023/04/05 09:42:14;;;;;;;1.50;1.40;;;19.40;41.20;;;;;;5013505;28;20965;-63
2023/04/05 09:44:54;;;;;;;1.30;1.20;;;19.40;41.20;;;;;;5000617;28;20435;-65
2023/04/05 09:47:29;;;;;;;1.40;1.30;;;19.40;41.20;;;;;;5014410;28;20818;-63
2023/04/05 09:49:55;;;;;;;1.53;1.43;;;19.40;41.30;;;;;;5017497;28;21022;-63
2023/04/05 09:52:22;;;;;;;1.83;1.57;;;19.40;41.30;;;;;;5011224;28;20431;-67
2023/04/05 09:54:50;;;;;;;1.33;1.23;;;19.40;41.30;;;;;;5007839;28;20450;-65
2023/04/05 09:57:16;;;;;;;1.30;1.20;;;19.40;41.30;;;;;;5002458;28;20525;-60
2023/04/05 09:59:42;;;;;;;1.33;1.23;;;19.50;41.30;;;;;;5013970;28;20500;-64
2023/04/05 10:02:10;;;;;;;1.30;1.20;;;19.50;41.40;;;;;;5009162;28;20575;-60
2023/04/05 10:04:44;;;;;;;1.30;1.20;;;19.40;41.30;;;;;;5000753;28;21384;-62
2023/04/05 10:07:14;;;;;;;1.60;1.30;;;19.40;41.20;;;;;;4998113;28;20439;-61
2023/04/05 10:09:40;;;;;;;4.13;1.40;;;19.40;41.20;;;;;;4998111;28;20463;-63
2023/04/05 10:12:07;;;;;;;1.33;1.23;;;19.40;41.30;;;;;;5005217;28;20442;-61
2023/04/05 10:14:35;;;;;;;4.90;1.40;;;19.50;41.30;;;;;;5004068;28;20438;-64
2023/04/05 10:17:22;;;;;;;1.33;1.23;;;19.40;41.30;;;;;;5004816;28;21983;-64
2023/04/05 10:20:14;;;;;;;1.37;1.27;;;19.50;41.20;;;;;;5009278;28;21684;-59
2023/04/05 10:23:04;;;;;;;1.40;1.30;;;19.50;41.20;;;;;;5010390;28;20794;-66
2023/04/05 10:25:48;;;;;;;1.47;1.37;;;19.50;41.10;;;;;;5016213;28;20441;-60
2023/04/05 10:28:36;;;;;;;4.53;1.40;;;19.50;41.10;;;;;;5012104;28;21986;-66
2023/04/05 10:31:16;;;;;;;1.77;1.50;;;19.50;41.20;;;;;;5016325;28;20442;-64
2023/04/05 10:33:46;;;;;;;4.30;1.73;;;19.50;41.10;;;;;;5006668;28;20441;-64
2023/04/05 10:36:40;;;;;;;2.40;1.83;;;19.50;41.10;;;;;;5011901;28;20480;-62
2023/04/05 10:39:19;;;;;;;1.50;1.40;;;19.60;41.10;;;;;;5010984;28;20434;-61
2023/04/05 10:41:52;;;;;;;1.30;1.20;;;19.60;41.10;;;;;;5010290;28;20984;-63
2023/04/05 10:44:18;;;;;;;1.93;1.27;;;19.60;41.50;;;;;;5003420;28;20468;-68
2023/04/05 10:46:45;;;;;;;1.60;1.50;;;19.60;41.10;;;;;;5006002;28;20495;-62
2023/04/05 10:49:21;;;;;;;1.30;1.20;;;19.60;41.10;;;;;;5008917;28;20305;-62
2023/04/05 10:51:47;;;;;;;1.40;1.30;;;19.60;41.10;;;;;;5014404;28;21034;-66
2023/04/05 10:54:15;;;;;;;4.17;1.23;;;19.60;41.10;;;;;;5015365;28;20448;-64
2023/04/05 10:56:42;;;;;;;1.40;1.30;;;19.60;41.00;;;;;;5009561;28;20456;-67
2023/04/05 10:59:09;;;;;;;1.40;1.20;;;19.70;41.10;;;;;;5008765;28;20428;-60
2023/04/05 11:01:35;;;;;;;1.20;1.10;;;19.70;41.10;;;;;;5008445;28;21052;-63
2023/04/05 11:04:11;;;;;;;1.40;1.30;;;19.70;41.10;;;;;;5005300;28;21130;-68
2023/04/05 11:06:37;;;;;;;1.50;1.40;;;19.70;41.10;;;;;;5009864;28;20548;-62
2023/04/05 11:09:16;;;;;;;1.27;1.07;;;19.70;41.10;;;;;;5010459;28;20555;-67
2023/04/05 11:11:43;;;;;;;1.40;1.30;;;19.70;41.10;;;;;;5007116;28;20456;-66
2023/04/05 11:14:22;;;;;;;1.40;1.30;;;19.70;41.20;;;;;;5006459;28;20473;-68
2023/04/05 11:16:53;;;;;;;2.17;1.20;;;19.70;41.00;;;;;;5003234;28;20438;-64
2023/04/05 11:19:19;;;;;;;2.03;1.20;;;19.70;41.10;;;;;;5006602;28;20938;-64
2023/04/05 11:21:44;;;;;;;2.80;1.80;;;19.70;41.10;;;;;;5005357;28;21646;-65
2023/04/05 11:24:14;;;;;;;1.77;1.30;;;19.70;41.10;;;;;;5009406;28;20499;-64
2023/04/05 11:26:39;;;;;;;1.20;1.10;;;19.70;41.10;;;;;;5010266;28;20223;-67
2023/04/05 11:29:06;;;;;;;1.77;1.47;;;19.70;41.10;;;;;;5011008;28;20445;-71
2023/04/05 11:31:31;;;;;;;1.50;1.40;;;19.70;41.10;;;;;;5007768;28;20252;-61
2023/04/05 11:34:09;;;;;;;1.60;1.50;;;19.70;41.10;;;;;;5004824;28;20966;-60
2023/04/05 11:36:37;;;;;;;1.47;1.37;;;19.80;41.10;;;;;;5015329;28;20299;-68
2023/04/05 11:39:18;;;;;;;1.40;1.30;;;19.70;41.10;;;;;;5016415;28;20464;-60
2023/04/05 11:41:53;;;;;;;1.30;1.20;;;19.70;41.10;;;;;;5014744;28;20510;-61
2023/04/05 11:44:21;;;;;;;1.30;1.20;;;19.70;41.10;;;;;;5015684;28;20455;-65
2023/04/05 11:46:47;;;;;;;1.33;1.23;;;19.80;41.10;;;;;;5013124;28;20441;-69
2023/04/05 11:49:13;;;;;;;1.40;1.30;;;19.70;41.00;;;;;;5010733;28;20922;-63
2023/04/05 11:51:42;;;;;;;1.30;1.20;;;19.70;41.00;;;;;;5010106;28;20234;-63
2023/04/05 11:54:09;;;;;;;1.37;1.27;;;19.80;41.00;;;;;;5012878;28;20480;-60
2023/04/05 11:56:35;;;;;;;1.33;1.23;;;19.80;40.90;;;;;;5013480;28;20438;-61
2023/04/05 11:59:00;;;;;;;1.53;1.43;;;19.80;40.90;;;;;;5011492;28;20435;-61
2023/04/05 12:01:26;;;;;;;1.50;1.40;;;19.80;40.70;;;;;;5008634;28;20231;-67
2023/04/05 12:03:54;;;;;;;1.83;1.20;;;19.80;40.70;;;;;;5018711;28;20229;-62
2023/04/05 12:06:22;;;;;;;1.53;1.20;;;19.80;40.70;;;;;;5021441;28;20563;-64
2023/04/05 12:08:51;;;;;;;1.40;1.30;;;19.80;40.60;;;;;;5019872;28;20435;-63
2023/04/05 12:11:24;;;;;;;1.43;1.33;;;19.80;40.70;;;;;;5021890;28;20438;-59
2023/04/05 12:13:54;;;;;;;1.43;1.33;;;19.80;40.60;;;;;;5012185;28;20494;-67
2023/04/05 12:16:20;;;;;;;1.60;1.50;;;19.80;40.60;;;;;;5017296;28;20487;-64
2023/04/05 12:18:55;;;;;;;1.30;1.20;;;19.80;41.30;;;;;;5020592;28;21188;-63
2023/04/05 12:21:21;;;;;;;1.70;1.20;;;19.80;40.60;;;;;;5021954;28;20241;-60
2023/04/05 12:23:48;;;;;;;1.20;1.10;;;19.80;40.60;;;;;;5018360;28;20441;-60
2023/04/05 12:26:14;;;;;;;1.33;1.23;;;19.80;40.60;;;;;;5017379;28;20521;-62
2023/04/05 12:28:54;;;;;;;1.37;1.27;;;19.80;40.70;;;;;;5024087;28;20515;-60
2023/04/05 12:31:39;;;;;;;1.40;1.30;;;19.80;40.60;;;;;;5017235;28;20249;-66
2023/04/05 12:34:05;;;;;;;1.30;1.20;;;19.80;40.60;;;;;;5014625;28;20456;-64
2023/04/05 12:36:31;;;;;;;1.43;1.33;;;19.80;40.60;;;;;;5016681;28;20453;-64
2023/04/05 12:38:57;;;;;;;1.87;1.27;;;19.80;40.60;;;;;;5019268;28;20637;-62
2023/04/05 12:41:27;;;;;;;1.30;1.20;;;19.80;40.60;;;;;;5018532;28;20541;-69
2023/04/05 12:43:59;;;;;;;1.30;1.20;;;19.80;40.60;;;;;;5013682;28;20318;-60
2023/04/05 12:46:38;;;;;;;2.30;1.30;;;19.80;40.50;;;;;;5012223;28;20442;-65
2023/04/05 12:49:04;;;;;;;1.50;1.40;;;19.80;40.60;;;;;;5020806;28;20469;-61
2023/04/05 12:51:31;;;;;;;1.83;1.33;;;19.80;40.60;;;;;;5016486;28;20468;-61
2023/04/05 12:53:56;;;;;;;1.80;1.70;;;19.80;40.60;;;;;;5017559;28;20309;-67